sensor_id;sensor_type;location;lat;lon;timestamp;P1;P2;P0
65574;PMS5003;52216;54.942;73.394;2022-09-03T00:01:58;7.00;5.00;2.00
65574;PMS5003;52216;54.942;73.394;2022-09-03T00:08:51;6.50;5.00;1.00
65574;PMS5003;52216;54.942;73.394;2022-09-03T00:12:12;5.00;4.50;0.00
65574;PMS5003;52216;54.942;73.394;2022-09-03T00:15:18;7.00;6.00;1.67
65574;PMS5003;52216;54.942;73.394;2022-09-03T00:18:22;8.00;5.25;1.00
65574;PMS5003;52216;54.942;73.394;2022-09-03T00:24:46;8.33;7.00;2.00
65574;PMS5003;52216;54.942;73.394;2022-09-03T00:27:50;8.00;6.50;3.00
65574;PMS5003;52216;54.942;73.394;2022-09-03T00:31:03;6.00;6.00;3.00
65574;PMS5003;52216;54.942;73.394;2022-09-03T00:37:29;7.00;7.00;2.25
65574;PMS5003;52216;54.942;73.394;2022-09-03T00:40:41;5.67;5.00;2.00
65574;PMS5003;52216;54.942;73.394;2022-09-03T00:50:25;7.75;6.00;3.00
65574;PMS5003;52216;54.942;73.394;2022-09-03T00:56:44;7.00;6.75;2.00
65574;PMS5003;52216;54.942;73.394;2022-09-03T01:16:09;7.00;7.00;2.00
65574;PMS5003;52216;54.942;73.394;2022-09-03T01:25:44;8.00;7.00;4.00
65574;PMS5003;52216;54.942;73.394;2022-09-03T01:29:02;6.00;6.00;4.00
65574;PMS5003;52216;54.942;73.394;2022-09-03T01:38:30;8.50;7.50;4.00
65574;PMS5003;52216;54.942;73.394;2022-09-03T01:48:32;10.00;10.00;4.00
65574;PMS5003;52216;54.942;73.394;2022-09-03T01:51:38;10.75;8.00;3.00
65574;PMS5003;52216;54.942;73.394;2022-09-03T01:55:04;6.00;6.00;3.00
65574;PMS5003;52216;54.942;73.394;2022-09-03T02:01:44;10.00;10.00;4.00
65574;PMS5003;52216;54.942;73.394;2022-09-03T02:04:59;10.33;9.00;4.00
65574;PMS5003;52216;54.942;73.394;2022-09-03T02:08:06;11.00;9.00;3.75
65574;PMS5003;52216;54.942;73.394;2022-09-03T02:11:09;9.00;8.00;5.00
65574;PMS5003;52216;54.942;73.394;2022-09-03T02:14:11;10.75;10.75;5.00
65574;PMS5003;52216;54.942;73.394;2022-09-03T02:17:13;14.00;13.00;4.25
65574;PMS5003;52216;54.942;73.394;2022-09-03T02:20:17;15.00;12.00;4.75
65574;PMS5003;52216;54.942;73.394;2022-09-03T02:23:30;16.00;13.00;5.50
65574;PMS5003;52216;54.942;73.394;2022-09-03T02:26:34;16.00;13.25;6.50
65574;PMS5003;52216;54.942;73.394;2022-09-03T02:29:36;19.00;18.00;6.00
65574;PMS5003;52216;54.942;73.394;2022-09-03T02:32:43;13.50;13.50;4.00
65574;PMS5003;52216;54.942;73.394;2022-09-03T02:35:50;10.00;10.00;5.00
65574;PMS5003;52216;54.942;73.394;2022-09-03T02:39:03;10.00;10.00;5.00
65574;PMS5003;52216;54.942;73.394;2022-09-03T02:42:11;11.00;11.00;6.00
65574;PMS5003;52216;54.942;73.394;2022-09-03T02:45:23;12.00;10.00;5.00
65574;PMS5003;52216;54.942;73.394;2022-09-03T02:48:39;12.33;11.33;6.00
65574;PMS5003;52216;54.942;73.394;2022-09-03T02:51:42;14.75;11.50;5.75
65574;PMS5003;52216;54.942;73.394;2022-09-03T02:54:49;15.00;11.50;5.00
65574;PMS5003;52216;54.942;73.394;2022-09-03T02:57:52;15.00;12.00;5.00
65574;PMS5003;52216;54.942;73.394;2022-09-03T03:00:54;18.00;14.00;7.00
65574;PMS5003;52216;54.942;73.394;2022-09-03T03:03:56;17.00;12.00;5.00
65574;PMS5003;52216;54.942;73.394;2022-09-03T03:07:03;14.50;11.50;5.25
65574;PMS5003;52216;54.942;73.394;2022-09-03T03:10:06;13.25;10.75;5.00
65574;PMS5003;52216;54.942;73.394;2022-09-03T03:13:13;13.00;11.00;5.00
65574;PMS5003;52216;54.942;73.394;2022-09-03T03:16:26;14.00;11.00;6.00
65574;PMS5003;52216;54.942;73.394;2022-09-03T03:19:28;14.75;12.50;6.75
65574;PMS5003;52216;54.942;73.394;2022-09-03T03:22:39;16.00;13.00;6.00
65574;PMS5003;52216;54.942;73.394;2022-09-03T03:25:51;16.00;14.00;7.00
65574;PMS5003;52216;54.942;73.394;2022-09-03T03:28:56;17.50;17.00;6.50
65574;PMS5003;52216;54.942;73.394;2022-09-03T03:31:59;19.00;19.00;7.00
65574;PMS5003;52216;54.942;73.394;2022-09-03T03:35:02;18.00;18.00;6.50
65574;PMS5003;52216;54.942;73.394;2022-09-03T03:38:15;15.50;15.25;6.50
65574;PMS5003;52216;54.942;73.394;2022-09-03T03:41:18;18.00;18.00;9.00
65574;PMS5003;52216;54.942;73.394;2022-09-03T03:44:27;19.75;17.00;8.50
65574;PMS5003;52216;54.942;73.394;2022-09-03T03:47:32;18.80;17.00;9.00
65574;PMS5003;52216;54.942;73.394;2022-09-03T03:50:35;19.40;17.00;7.00
65574;PMS5003;52216;54.942;73.394;2022-09-03T03:53:52;18.00;18.00;8.00
65574;PMS5003;52216;54.942;73.394;2022-09-03T03:56:54;17.75;17.00;8.00
65574;PMS5003;52216;54.942;73.394;2022-09-03T04:00:06;19.25;17.00;7.00
65574;PMS5003;52216;54.942;73.394;2022-09-03T04:03:16;20.00;19.00;7.33
65574;PMS5003;52216;54.942;73.394;2022-09-03T04:06:19;18.00;17.00;8.00
65574;PMS5003;52216;54.942;73.394;2022-09-03T04:09:21;21.00;20.00;8.00
65574;PMS5003;52216;54.942;73.394;2022-09-03T04:12:25;21.00;19.00;7.50
65574;PMS5003;52216;54.942;73.394;2022-09-03T04:15:27;21.50;20.00;8.25
65574;PMS5003;52216;54.942;73.394;2022-09-03T04:18:40;19.50;19.00;9.00
65574;PMS5003;52216;54.942;73.394;2022-09-03T04:21:53;18.00;18.00;7.50
65574;PMS5003;52216;54.942;73.394;2022-09-03T04:24:55;17.50;17.50;7.75
65574;PMS5003;52216;54.942;73.394;2022-09-03T04:28:03;18.40;16.60;8.00
65574;PMS5003;52216;54.942;73.394;2022-09-03T04:31:06;18.00;17.00;6.00
65574;PMS5003;52216;54.942;73.394;2022-09-03T04:34:10;18.00;17.00;8.20
65574;PMS5003;52216;54.942;73.394;2022-09-03T04:37:14;18.75;18.00;8.00
65574;PMS5003;52216;54.942;73.394;2022-09-03T04:40:17;21.00;20.00;8.00
65574;PMS5003;52216;54.942;73.394;2022-09-03T04:43:19;18.00;17.00;6.00
65574;PMS5003;52216;54.942;73.394;2022-09-03T04:46:23;17.67;17.67;7.00
65574;PMS5003;52216;54.942;73.394;2022-09-03T04:49:38;18.00;18.00;6.80
65574;PMS5003;52216;54.942;73.394;2022-09-03T04:52:50;16.50;16.50;7.75
65574;PMS5003;52216;54.942;73.394;2022-09-03T04:55:53;22.00;19.00;9.00
65574;PMS5003;52216;54.942;73.394;2022-09-03T04:59:04;20.00;19.00;9.00
65574;PMS5003;52216;54.942;73.394;2022-09-03T05:02:18;19.00;17.00;7.00
65574;PMS5003;52216;54.942;73.394;2022-09-03T05:05:22;20.00;19.00;9.00
65574;PMS5003;52216;54.942;73.394;2022-09-03T05:08:35;18.00;17.00;8.00
65574;PMS5003;52216;54.942;73.394;2022-09-03T05:11:37;19.00;18.00;7.50
65574;PMS5003;52216;54.942;73.394;2022-09-03T05:14:46;19.00;18.00;8.00
65574;PMS5003;52216;54.942;73.394;2022-09-03T05:17:49;18.25;17.00;7.75
65574;PMS5003;52216;54.942;73.394;2022-09-03T05:21:01;20.00;18.00;8.67
65574;PMS5003;52216;54.942;73.394;2022-09-03T05:24:05;21.25;19.00;8.50
65574;PMS5003;52216;54.942;73.394;2022-09-03T05:27:08;18.00;17.00;8.00
65574;PMS5003;52216;54.942;73.394;2022-09-03T05:30:11;18.00;17.00;8.00
65574;PMS5003;52216;54.942;73.394;2022-09-03T05:33:14;18.00;17.00;8.00
65574;PMS5003;52216;54.942;73.394;2022-09-03T05:36:18;20.00;17.00;7.25
65574;PMS5003;52216;54.942;73.394;2022-09-03T05:39:30;19.00;19.00;8.00
65574;PMS5003;52216;54.942;73.394;2022-09-03T05:42:33;20.00;20.00;7.00
65574;PMS5003;52216;54.942;73.394;2022-09-03T05:45:39;17.50;17.00;7.25
65574;PMS5003;52216;54.942;73.394;2022-09-03T05:48:42;19.00;16.33;9.00
65574;PMS5003;52216;54.942;73.394;2022-09-03T05:51:45;18.00;17.00;8.00
65574;PMS5003;52216;54.942;73.394;2022-09-03T05:54:52;19.00;18.00;8.00
65574;PMS5003;52216;54.942;73.394;2022-09-03T05:57:55;18.00;16.50;7.75
65574;PMS5003;52216;54.942;73.394;2022-09-03T06:01:12;19.40;17.60;7.00
65574;PMS5003;52216;54.942;73.394;2022-09-03T06:04:21;18.75;17.25;7.75
65574;PMS5003;52216;54.942;73.394;2022-09-03T06:07:24;20.40;19.00;9.60
65574;PMS5003;52216;54.942;73.394;2022-09-03T06:10:26;20.20;18.00;10.00
65574;PMS5003;52216;54.942;73.394;2022-09-03T06:13:35;23.00;20.17;10.00
65574;PMS5003;52216;54.942;73.394;2022-09-03T06:16:43;24.00;21.00;11.00
65574;PMS5003;52216;54.942;73.394;2022-09-03T06:19:45;22.00;20.00;10.00
65574;PMS5003;52216;54.942;73.394;2022-09-03T06:22:48;21.00;20.00;9.33
65574;PMS5003;52216;54.942;73.394;2022-09-03T06:26:01;25.00;23.00;11.00
65574;PMS5003;52216;54.942;73.394;2022-09-03T06:29:03;25.00;22.00;12.00
65574;PMS5003;52216;54.942;73.394;2022-09-03T06:32:17;21.60;20.20;12.60
65574;PMS5003;52216;54.942;73.394;2022-09-03T06:35:21;22.00;21.00;12.60
65574;PMS5003;52216;54.942;73.394;2022-09-03T06:38:27;23.00;23.00;14.00
65574;PMS5003;52216;54.942;73.394;2022-09-03T06:41:31;21.00;21.00;11.20
65574;PMS5003;52216;54.942;73.394;2022-09-03T06:44:46;23.50;22.25;12.00
65574;PMS5003;52216;54.942;73.394;2022-09-03T06:47:49;23.00;22.00;13.00
65574;PMS5003;52216;54.942;73.394;2022-09-03T06:51:04;23.40;22.00;13.80
65574;PMS5003;52216;54.942;73.394;2022-09-03T06:54:11;25.25;24.25;14.00
65574;PMS5003;52216;54.942;73.394;2022-09-03T06:57:14;26.00;24.25;14.00
65574;PMS5003;52216;54.942;73.394;2022-09-03T07:00:16;24.50;23.00;15.00
65574;PMS5003;52216;54.942;73.394;2022-09-03T07:03:24;24.00;23.00;14.80
65574;PMS5003;52216;54.942;73.394;2022-09-03T07:06:27;24.20;22.40;14.00
65574;PMS5003;52216;54.942;73.394;2022-09-03T07:09:30;23.00;22.25;13.00
65574;PMS5003;52216;54.942;73.394;2022-09-03T07:12:36;22.00;22.00;12.00
65574;PMS5003;52216;54.942;73.394;2022-09-03T07:15:38;24.00;23.50;13.75
65574;PMS5003;52216;54.942;73.394;2022-09-03T07:18:47;25.00;23.00;14.00
65574;PMS5003;52216;54.942;73.394;2022-09-03T07:21:49;25.00;24.00;14.00
65574;PMS5003;52216;54.942;73.394;2022-09-03T07:24:51;23.50;21.00;14.00
65574;PMS5003;52216;54.942;73.394;2022-09-03T07:27:55;23.00;21.00;12.00
65574;PMS5003;52216;54.942;73.394;2022-09-03T07:31:11;22.80;20.40;12.60
65574;PMS5003;52216;54.942;73.394;2022-09-03T07:34:14;28.80;26.20;17.20
65574;PMS5003;52216;54.942;73.394;2022-09-03T07:37:16;27.00;25.00;18.00
65574;PMS5003;52216;54.942;73.394;2022-09-03T07:40:19;22.00;21.00;16.00
65574;PMS5003;52216;54.942;73.394;2022-09-03T07:43:22;19.75;19.00;13.75
65574;PMS5003;52216;54.942;73.394;2022-09-03T07:46:26;19.00;18.25;8.50
65574;PMS5003;52216;54.942;73.394;2022-09-03T07:49:28;18.00;18.00;9.00
65574;PMS5003;52216;54.942;73.394;2022-09-03T07:52:30;19.00;18.50;8.00
65574;PMS5003;52216;54.942;73.394;2022-09-03T07:55:33;19.75;19.00;7.50
65574;PMS5003;52216;54.942;73.394;2022-09-03T07:58:36;19.00;18.00;8.00
65574;PMS5003;52216;54.942;73.394;2022-09-03T08:01:39;20.00;18.00;9.00
65574;PMS5003;52216;54.942;73.394;2022-09-03T08:04:41;17.50;17.00;6.00
65574;PMS5003;52216;54.942;73.394;2022-09-03T08:07:44;17.25;15.25;7.00
65574;PMS5003;52216;54.942;73.394;2022-09-03T08:10:51;17.00;15.50;7.00
65574;PMS5003;52216;54.942;73.394;2022-09-03T08:14:00;18.00;16.00;7.00
65574;PMS5003;52216;54.942;73.394;2022-09-03T08:17:03;17.00;16.00;7.00
65574;PMS5003;52216;54.942;73.394;2022-09-03T08:20:05;16.75;15.00;6.00
65574;PMS5003;52216;54.942;73.394;2022-09-03T08:23:08;16.50;15.00;7.00
65574;PMS5003;52216;54.942;73.394;2022-09-03T08:26:11;17.00;15.00;6.00
65574;PMS5003;52216;54.942;73.394;2022-09-03T08:29:24;17.25;14.75;7.75
65574;PMS5003;52216;54.942;73.394;2022-09-03T08:32:27;17.00;14.00;7.00
65574;PMS5003;52216;54.942;73.394;2022-09-03T08:35:29;17.00;15.00;8.00
65574;PMS5003;52216;54.942;73.394;2022-09-03T08:38:38;18.25;16.25;8.00
65574;PMS5003;52216;54.942;73.394;2022-09-03T08:45:00;18.00;18.00;9.40
65574;PMS5003;52216;54.942;73.394;2022-09-03T08:48:06;21.83;20.50;10.00
65574;PMS5003;52216;54.942;73.394;2022-09-03T08:51:12;21.00;20.00;12.20
65574;PMS5003;52216;54.942;73.394;2022-09-03T08:54:28;22.00;21.00;11.50
65574;PMS5003;52216;54.942;73.394;2022-09-03T08:57:35;19.00;19.00;9.00
65574;PMS5003;52216;54.942;73.394;2022-09-03T09:07:24;21.00;19.00;9.60
65574;PMS5003;52216;54.942;73.394;2022-09-03T09:10:43;21.00;19.00;11.00
65574;PMS5003;52216;54.942;73.394;2022-09-03T09:13:53;20.50;20.00;11.50
65574;PMS5003;52216;54.942;73.394;2022-09-03T09:17:24;23.00;22.00;13.00
65574;PMS5003;52216;54.942;73.394;2022-09-03T09:23:34;20.00;19.25;10.00
65574;PMS5003;52216;54.942;73.394;2022-09-03T09:26:39;19.00;19.00;10.00
65574;PMS5003;52216;54.942;73.394;2022-09-03T09:29:51;20.00;19.00;11.00
65574;PMS5003;52216;54.942;73.394;2022-09-03T09:32:54;20.00;18.00;10.00
65574;PMS5003;52216;54.942;73.394;2022-09-03T09:36:09;19.20;19.20;10.20
65574;PMS5003;52216;54.942;73.394;2022-09-03T09:39:13;20.00;19.60;11.00
65574;PMS5003;52216;54.942;73.394;2022-09-03T09:42:20;21.00;20.00;8.50
65574;PMS5003;52216;54.942;73.394;2022-09-03T09:45:33;22.00;20.00;9.00
65574;PMS5003;52216;54.942;73.394;2022-09-03T09:48:56;21.00;19.00;8.60
65574;PMS5003;52216;54.942;73.394;2022-09-03T09:52:10;20.50;19.00;8.50
65574;PMS5003;52216;54.942;73.394;2022-09-03T09:55:14;20.60;17.80;10.20
65574;PMS5003;52216;54.942;73.394;2022-09-03T09:58:19;19.00;18.00;8.00
65574;PMS5003;52216;54.942;73.394;2022-09-03T10:01:28;20.00;19.40;9.00
65574;PMS5003;52216;54.942;73.394;2022-09-03T10:04:33;19.25;18.50;8.25
65574;PMS5003;52216;54.942;73.394;2022-09-03T10:07:36;20.20;19.20;9.60
65574;PMS5003;52216;54.942;73.394;2022-09-03T10:10:41;21.00;19.00;10.00
65574;PMS5003;52216;54.942;73.394;2022-09-03T10:13:45;20.00;18.00;9.00
65574;PMS5003;52216;54.942;73.394;2022-09-03T10:16:54;19.00;18.75;8.00
65574;PMS5003;52216;54.942;73.394;2022-09-03T10:20:14;20.00;18.67;10.00
65574;PMS5003;52216;54.942;73.394;2022-09-03T10:26:43;19.00;18.00;9.00
65574;PMS5003;52216;54.942;73.394;2022-09-03T10:29:54;19.00;16.00;7.00
65574;PMS5003;52216;54.942;73.394;2022-09-03T10:33:06;18.00;16.00;7.50
65574;PMS5003;52216;54.942;73.394;2022-09-03T10:36:16;17.00;15.00;7.00
65574;PMS5003;52216;54.942;73.394;2022-09-03T10:39:22;18.00;17.00;8.25
65574;PMS5003;52216;54.942;73.394;2022-09-03T10:45:48;19.60;17.00;7.00
65574;PMS5003;52216;54.942;73.394;2022-09-03T10:52:01;20.75;17.50;9.00
65574;PMS5003;52216;54.942;73.394;2022-09-03T11:05:26;42.00;35.20;23.00
65574;PMS5003;52216;54.942;73.394;2022-09-03T11:08:13;40.50;34.25;23.00
65574;PMS5003;52216;54.942;73.394;2022-09-03T11:11:24;38.00;32.00;23.00
65574;PMS5003;52216;54.942;73.394;2022-09-03T11:14:39;35.50;31.25;22.00
65574;PMS5003;52216;54.942;73.394;2022-09-03T11:17:47;34.00;31.00;21.00
65574;PMS5003;52216;54.942;73.394;2022-09-03T11:20:54;34.00;31.00;20.00
65574;PMS5003;52216;54.942;73.394;2022-09-03T11:30:43;45.00;36.75;24.25
65574;PMS5003;52216;54.942;73.394;2022-09-03T11:33:40;47.60;39.40;25.00
65574;PMS5003;52216;54.942;73.394;2022-09-03T11:36:44;46.00;39.25;25.00
65574;PMS5003;52216;54.942;73.394;2022-09-03T11:39:56;44.50;38.00;25.00
65574;PMS5003;52216;54.942;73.394;2022-09-03T11:46:09;45.75;37.50;24.25
65574;PMS5003;52216;54.942;73.394;2022-09-03T11:49:22;48.00;39.75;26.00
65574;PMS5003;52216;54.942;73.394;2022-09-03T11:52:26;48.25;39.50;25.00
65574;PMS5003;52216;54.942;73.394;2022-09-03T11:59:02;38.25;34.00;22.00
65574;PMS5003;52216;54.942;73.394;2022-09-03T12:05:15;34.50;31.00;21.00
65574;PMS5003;52216;54.942;73.394;2022-09-03T12:08:35;37.50;33.00;21.00
65574;PMS5003;52216;54.942;73.394;2022-09-03T12:18:23;37.00;33.25;20.50
65574;PMS5003;52216;54.942;73.394;2022-09-03T12:21:36;43.75;36.50;22.50
65574;PMS5003;52216;54.942;73.394;2022-09-03T12:24:38;44.00;37.00;24.75
65574;PMS5003;52216;54.942;73.394;2022-09-03T12:27:41;46.00;37.25;25.00
65574;PMS5003;52216;54.942;73.394;2022-09-03T12:30:49;46.00;37.25;25.00
65574;PMS5003;52216;54.942;73.394;2022-09-03T12:33:58;46.00;38.75;25.00
65574;PMS5003;52216;54.942;73.394;2022-09-03T12:37:02;47.00;39.00;25.00
65574;PMS5003;52216;54.942;73.394;2022-09-03T12:40:05;48.00;39.80;26.00
65574;PMS5003;52216;54.942;73.394;2022-09-03T12:43:14;49.00;39.00;26.00
65574;PMS5003;52216;54.942;73.394;2022-09-03T12:46:23;48.00;38.60;25.20
65574;PMS5003;52216;54.942;73.394;2022-09-03T12:49:40;48.00;39.80;26.00
65574;PMS5003;52216;54.942;73.394;2022-09-03T12:55:55;48.00;40.00;26.00
65574;PMS5003;52216;54.942;73.394;2022-09-03T12:59:05;48.20;40.40;26.00
65574;PMS5003;52216;54.942;73.394;2022-09-03T13:02:16;51.80;42.00;26.20
65574;PMS5003;52216;54.942;73.394;2022-09-03T13:05:21;52.50;42.50;26.25
65574;PMS5003;52216;54.942;73.394;2022-09-03T13:08:28;51.00;41.00;26.00
65574;PMS5003;52216;54.942;73.394;2022-09-03T13:11:39;46.00;38.00;24.00
65574;PMS5003;52216;54.942;73.394;2022-09-03T13:14:48;42.00;37.00;23.00
65574;PMS5003;52216;54.942;73.394;2022-09-03T13:21:05;37.00;32.00;21.00
65574;PMS5003;52216;54.942;73.394;2022-09-03T13:27:37;33.25;30.00;20.00
65574;PMS5003;52216;54.942;73.394;2022-09-03T13:33:43;34.00;31.00;19.00
65574;PMS5003;52216;54.942;73.394;2022-09-03T13:36:53;31.00;29.25;19.00
65574;PMS5003;52216;54.942;73.394;2022-09-03T13:39:57;30.00;29.00;19.00
65574;PMS5003;52216;54.942;73.394;2022-09-03T13:46:44;28.50;26.00;17.50
65574;PMS5003;52216;54.942;73.394;2022-09-03T13:50:02;31.25;29.00;19.00
65574;PMS5003;52216;54.942;73.394;2022-09-03T14:00:04;27.00;24.00;17.00
65574;PMS5003;52216;54.942;73.394;2022-09-03T14:06:38;25.00;25.00;17.00
65574;PMS5003;52216;54.942;73.394;2022-09-03T14:09:47;25.00;24.00;16.00
65574;PMS5003;52216;54.942;73.394;2022-09-03T14:22:53;31.00;28.75;19.00
65574;PMS5003;52216;54.942;73.394;2022-09-03T14:26:14;31.75;29.75;19.00
65574;PMS5003;52216;54.942;73.394;2022-09-03T14:29:16;32.00;30.50;19.00
65574;PMS5003;52216;54.942;73.394;2022-09-03T14:38:55;31.00;30.00;19.00
65574;PMS5003;52216;54.942;73.394;2022-09-03T14:45:29;30.75;29.00;19.00
65574;PMS5003;52216;54.942;73.394;2022-09-03T14:52:21;30.00;29.00;19.00
65574;PMS5003;52216;54.942;73.394;2022-09-03T15:01:40;29.00;28.00;19.00
65574;PMS5003;52216;54.942;73.394;2022-09-03T15:07:55;33.00;30.00;19.00
65574;PMS5003;52216;54.942;73.394;2022-09-03T15:11:23;33.00;30.00;19.00
65574;PMS5003;52216;54.942;73.394;2022-09-03T15:14:48;31.50;29.50;20.00
65574;PMS5003;52216;54.942;73.394;2022-09-03T15:18:19;31.25;29.00;19.00
65574;PMS5003;52216;54.942;73.394;2022-09-03T15:28:04;27.25;25.00;17.00
65574;PMS5003;52216;54.942;73.394;2022-09-03T15:34:44;27.00;26.00;16.00
65574;PMS5003;52216;54.942;73.394;2022-09-03T15:38:01;26.00;26.00;17.00
65574;PMS5003;52216;54.942;73.394;2022-09-03T15:44:35;24.00;23.00;16.00
65574;PMS5003;52216;54.942;73.394;2022-09-03T15:47:47;24.00;21.25;14.00
65574;PMS5003;52216;54.942;73.394;2022-09-03T15:54:13;23.00;22.75;13.00
65574;PMS5003;52216;54.942;73.394;2022-09-03T15:57:26;24.25;21.25;12.25
65574;PMS5003;52216;54.942;73.394;2022-09-03T16:00:58;20.40;19.40;10.40
65574;PMS5003;52216;54.942;73.394;2022-09-03T16:07:30;21.00;20.00;9.67
65574;PMS5003;52216;54.942;73.394;2022-09-03T16:14:17;19.00;18.00;8.00
65574;PMS5003;52216;54.942;73.394;2022-09-03T16:30:06;21.00;20.67;12.00
65574;PMS5003;52216;54.942;73.394;2022-09-03T16:46:53;21.00;20.00;11.00
65574;PMS5003;52216;54.942;73.394;2022-09-03T16:50:27;22.50;21.50;11.50
65574;PMS5003;52216;54.942;73.394;2022-09-03T16:57:19;21.00;20.00;10.67
65574;PMS5003;52216;54.942;73.394;2022-09-03T17:00:27;22.00;21.00;11.00
65574;PMS5003;52216;54.942;73.394;2022-09-03T17:17:03;22.00;22.00;9.00
65574;PMS5003;52216;54.942;73.394;2022-09-03T17:20:04;20.00;20.00;9.00
65574;PMS5003;52216;54.942;73.394;2022-09-03T17:23:25;20.00;20.00;8.00
65574;PMS5003;52216;54.942;73.394;2022-09-03T17:26:35;20.00;20.00;10.00
65574;PMS5003;52216;54.942;73.394;2022-09-03T17:30:02;20.00;20.00;10.17
65574;PMS5003;52216;54.942;73.394;2022-09-03T17:36:38;19.00;18.00;9.00
65574;PMS5003;52216;54.942;73.394;2022-09-03T17:40:09;20.20;18.20;9.00
65574;PMS5003;52216;54.942;73.394;2022-09-03T17:46:43;19.00;18.00;9.00
65574;PMS5003;52216;54.942;73.394;2022-09-03T17:49:49;20.00;19.00;10.00
65574;PMS5003;52216;54.942;73.394;2022-09-03T17:53:00;22.20;21.80;11.00
65574;PMS5003;52216;54.942;73.394;2022-09-03T17:59:50;21.00;20.00;13.00
65574;PMS5003;52216;54.942;73.394;2022-09-03T18:02:58;22.00;22.00;13.67
65574;PMS5003;52216;54.942;73.394;2022-09-03T18:06:05;24.00;23.00;14.00
65574;PMS5003;52216;54.942;73.394;2022-09-03T18:12:37;23.00;22.00;12.00
65574;PMS5003;52216;54.942;73.394;2022-09-03T18:19:26;27.00;25.00;17.00
65574;PMS5003;52216;54.942;73.394;2022-09-03T18:26:28;32.00;29.00;19.00
65574;PMS5003;52216;54.942;73.394;2022-09-03T18:30:04;33.00;29.00;20.00
65574;PMS5003;52216;54.942;73.394;2022-09-03T18:33:25;34.25;30.75;21.00
65574;PMS5003;52216;54.942;73.394;2022-09-03T18:36:51;46.75;39.00;25.00
65574;PMS5003;52216;54.942;73.394;2022-09-03T18:40:16;53.50;44.25;29.75
65574;PMS5003;52216;54.942;73.394;2022-09-03T18:47:14;63.50;51.50;36.00
65574;PMS5003;52216;54.942;73.394;2022-09-03T18:54:21;58.50;48.25;32.00
65574;PMS5003;52216;54.942;73.394;2022-09-03T18:57:57;49.00;42.00;28.00
65574;PMS5003;52216;54.942;73.394;2022-09-03T19:01:32;37.50;33.75;23.25
65574;PMS5003;52216;54.942;73.394;2022-09-03T19:15:26;19.75;19.00;9.50
65574;PMS5003;52216;54.942;73.394;2022-09-03T19:22:37;15.50;14.50;5.50
65574;PMS5003;52216;54.942;73.394;2022-09-03T19:40:52;13.00;12.00;4.00
65574;PMS5003;52216;54.942;73.394;2022-09-03T19:44:23;14.00;11.00;5.00
65574;PMS5003;52216;54.942;73.394;2022-09-03T19:48:07;11.25;8.50;4.00
65574;PMS5003;52216;54.942;73.394;2022-09-03T19:55:29;7.00;7.00;3.50
65574;PMS5003;52216;54.942;73.394;2022-09-03T19:58:53;7.75;7.00;3.00
65574;PMS5003;52216;54.942;73.394;2022-09-03T20:02:24;7.33;7.33;1.00
65574;PMS5003;52216;54.942;73.394;2022-09-03T20:05:45;8.00;8.00;2.00
65574;PMS5003;52216;54.942;73.394;2022-09-03T20:09:08;10.00;9.00;3.00
65574;PMS5003;52216;54.942;73.394;2022-09-03T20:12:32;13.00;9.00;4.00
65574;PMS5003;52216;54.942;73.394;2022-09-03T20:35:21;6.00;5.50;1.00
65574;PMS5003;52216;54.942;73.394;2022-09-03T20:45:31;5.00;4.75;1.00
65574;PMS5003;52216;54.942;73.394;2022-09-03T20:48:45;6.00;6.00;1.00
65574;PMS5003;52216;54.942;73.394;2022-09-03T20:51:54;6.50;5.00;1.00
65574;PMS5003;52216;54.942;73.394;2022-09-03T21:01:35;4.75;3.00;1.00
65574;PMS5003;52216;54.942;73.394;2022-09-03T21:08:06;4.25;4.25;1.00
65574;PMS5003;52216;54.942;73.394;2022-09-03T21:14:31;5.33;5.00;0.00
65574;PMS5003;52216;54.942;73.394;2022-09-03T21:23:47;5.00;3.00;1.00
65574;PMS5003;52216;54.942;73.394;2022-09-03T21:26:51;4.25;4.00;2.00
65574;PMS5003;52216;54.942;73.394;2022-09-03T21:30:04;6.00;5.00;2.00
65574;PMS5003;52216;54.942;73.394;2022-09-03T21:33:21;5.00;5.00;1.00
65574;PMS5003;52216;54.942;73.394;2022-09-03T21:36:32;5.00;4.00;0.00
65574;PMS5003;52216;54.942;73.394;2022-09-03T21:40:08;5.00;5.00;0.00
65574;PMS5003;52216;54.942;73.394;2022-09-03T21:43:15;5.00;5.00;1.00
65574;PMS5003;52216;54.942;73.394;2022-09-03T21:46:31;6.00;5.00;1.00
65574;PMS5003;52216;54.942;73.394;2022-09-03T21:52:52;4.00;4.00;1.00
65574;PMS5003;52216;54.942;73.394;2022-09-03T21:56:07;4.75;4.75;0.00
65574;PMS5003;52216;54.942;73.394;2022-09-03T22:02:41;4.00;4.00;1.00
65574;PMS5003;52216;54.942;73.394;2022-09-03T22:08:57;7.00;7.00;3.00
65574;PMS5003;52216;54.942;73.394;2022-09-03T22:15:49;7.00;7.00;4.00
65574;PMS5003;52216;54.942;73.394;2022-09-03T22:18:52;7.25;6.00;4.00
65574;PMS5003;52216;54.942;73.394;2022-09-03T22:21:56;7.00;6.00;3.00
65574;PMS5003;52216;54.942;73.394;2022-09-03T22:25:04;8.00;7.00;4.00
65574;PMS5003;52216;54.942;73.394;2022-09-03T22:28:17;7.00;7.00;3.00
65574;PMS5003;52216;54.942;73.394;2022-09-03T22:31:34;6.00;5.50;3.00
65574;PMS5003;52216;54.942;73.394;2022-09-03T22:35:02;8.00;7.00;3.00
65574;PMS5003;52216;54.942;73.394;2022-09-03T22:41:23;7.00;7.00;2.00
65574;PMS5003;52216;54.942;73.394;2022-09-03T22:47:45;11.50;9.00;4.25
65574;PMS5003;52216;54.942;73.394;2022-09-03T22:57:19;9.33;9.00;4.00
65574;PMS5003;52216;54.942;73.394;2022-09-03T23:00:28;10.00;9.00;5.00
65574;PMS5003;52216;54.942;73.394;2022-09-03T23:03:39;9.33;9.00;4.67
65574;PMS5003;52216;54.942;73.394;2022-09-03T23:10:14;10.75;9.75;5.00
65574;PMS5003;52216;54.942;73.394;2022-09-03T23:13:19;10.00;9.00;4.00
65574;PMS5003;52216;54.942;73.394;2022-09-03T23:16:26;12.00;10.50;5.25
65574;PMS5003;52216;54.942;73.394;2022-09-03T23:19:49;12.67;11.00;5.00
65574;PMS5003;52216;54.942;73.394;2022-09-03T23:23:07;13.00;11.00;5.50
65574;PMS5003;52216;54.942;73.394;2022-09-03T23:32:53;10.75;9.25;5.25
65574;PMS5003;52216;54.942;73.394;2022-09-03T23:36:03;11.00;10.50;4.00
65574;PMS5003;52216;54.942;73.394;2022-09-03T23:39:20;11.00;10.67;4.00
65574;PMS5003;52216;54.942;73.394;2022-09-03T23:42:30;11.00;10.00;4.00
65574;PMS5003;52216;54.942;73.394;2022-09-03T23:45:56;13.00;10.50;4.50
65574;PMS5003;52216;54.942;73.394;2022-09-03T23:58:37;10.50;10.50;5.75
